createdAt,value
2017-05-08T00:00:19.119Z,1012.54
2017-05-08T00:01:20.644Z,1012.54
2017-05-08T00:02:42.281Z,1012.56
2017-05-08T00:03:43.805Z,1012.53
2017-05-08T00:05:05.443Z,1012.57
2017-05-08T00:06:06.965Z,1012.56
2017-05-08T00:07:28.629Z,1012.55
2017-05-08T00:08:30.154Z,1012.56
2017-05-08T00:09:51.792Z,1012.59
2017-05-08T00:10:53.315Z,1012.59
2017-05-08T00:12:14.952Z,1012.57
2017-05-08T00:13:16.474Z,1012.54
2017-05-08T00:14:38.140Z,1012.60
2017-05-08T00:15:39.662Z,1012.58
2017-05-08T00:17:01.304Z,1012.53
2017-05-08T00:18:02.826Z,1012.54
2017-05-08T00:19:24.463Z,1012.52
2017-05-08T00:20:25.986Z,1012.50
2017-05-08T00:21:47.655Z,1012.46
2017-05-08T00:22:49.177Z,1012.49
2017-05-08T00:24:10.817Z,1012.46
2017-05-08T00:25:12.343Z,1012.45
2017-05-08T00:26:34.477Z,1012.42
2017-05-08T00:27:36.001Z,1012.44
2017-05-08T00:28:57.673Z,1012.42
2017-05-08T00:29:59.197Z,1012.41
2017-05-08T00:31:20.836Z,1012.43
2017-05-08T00:32:22.359Z,1012.45
2017-05-08T00:33:43.995Z,1012.40
2017-05-08T00:34:45.518Z,1012.39
2017-05-08T00:36:07.193Z,1012.43
2017-05-08T00:37:08.715Z,1012.49
2017-05-08T00:38:30.350Z,1012.46
2017-05-08T00:39:31.873Z,1012.39
2017-05-08T00:40:53.510Z,1012.39
2017-05-08T00:41:55.032Z,1012.38
2017-05-08T00:43:16.696Z,1012.38
2017-05-08T00:44:18.219Z,1012.40
2017-05-08T00:45:39.860Z,1012.36
2017-05-08T00:46:41.382Z,1012.31
2017-05-08T00:48:03.021Z,1012.33
2017-05-08T00:49:04.547Z,1012.32
2017-05-08T00:50:26.210Z,1012.28
2017-05-08T00:51:27.734Z,1012.30
2017-05-08T00:52:49.372Z,1012.31
2017-05-08T00:53:50.896Z,1012.25
2017-05-08T00:55:12.532Z,1012.22
2017-05-08T00:56:14.057Z,1012.22
2017-05-08T00:57:35.719Z,1012.22
2017-05-08T00:58:37.240Z,1012.22
2017-05-08T00:59:58.877Z,1012.19
2017-05-08T01:01:00.406Z,1012.18
2017-05-08T01:02:22.036Z,1012.15
2017-05-08T01:03:23.557Z,1012.16
2017-05-08T01:04:45.223Z,1012.19
2017-05-08T01:05:46.744Z,1012.18
2017-05-08T01:07:08.383Z,1012.15
2017-05-08T01:08:09.906Z,1012.20
2017-05-08T01:09:31.541Z,1012.16
2017-05-08T01:10:33.062Z,1012.16
2017-05-08T01:11:54.727Z,1012.16
2017-05-08T01:12:56.254Z,1012.14
2017-05-08T01:14:17.896Z,1012.12
2017-05-08T01:15:19.413Z,1012.09
2017-05-08T01:16:41.050Z,1012.11
2017-05-08T01:17:42.572Z,1012.09
2017-05-08T01:19:04.245Z,1012.12
2017-05-08T01:20:05.767Z,1012.07
2017-05-08T01:21:27.407Z,1012.08
2017-05-08T01:22:28.930Z,1012.04
2017-05-08T01:23:50.571Z,1012.09
2017-05-08T01:24:52.092Z,1012.04
2017-05-08T01:26:13.754Z,1012.03
2017-05-08T01:27:15.277Z,1012.03
2017-05-08T01:28:36.920Z,1011.99
2017-05-08T01:29:38.441Z,1012.02
2017-05-08T01:31:00.076Z,1011.94
2017-05-08T01:32:01.597Z,1011.93
2017-05-08T01:33:23.257Z,1011.91
2017-05-08T01:34:24.777Z,1011.89
2017-05-08T01:35:46.413Z,1011.91
2017-05-08T01:36:47.933Z,1011.91
2017-05-08T01:38:09.567Z,1011.92
2017-05-08T01:39:11.089Z,1011.94
2017-05-08T01:40:32.763Z,1011.94
2017-05-08T01:41:34.281Z,1011.91
2017-05-08T01:42:55.917Z,1011.95
2017-05-08T01:43:57.437Z,1011.95
2017-05-08T01:45:19.068Z,1011.97
2017-05-08T01:46:20.590Z,1011.96
2017-05-08T01:47:42.252Z,1011.97
2017-05-08T01:48:43.775Z,1011.94
2017-05-08T01:50:05.413Z,1011.96
2017-05-08T01:51:06.932Z,1011.96
2017-05-08T01:52:28.566Z,1011.99
2017-05-08T01:53:30.085Z,1011.98
2017-05-08T01:54:51.745Z,1011.94
2017-05-08T01:55:53.267Z,1012.00
2017-05-08T01:57:14.902Z,1011.98
2017-05-08T01:58:16.425Z,1011.92
2017-05-08T01:59:38.057Z,1011.91
2017-05-08T02:00:39.576Z,1011.95
2017-05-08T02:02:01.247Z,1011.92
2017-05-08T02:03:02.767Z,1011.93
2017-05-08T02:04:24.895Z,1011.95
2017-05-08T02:05:26.415Z,1011.97
2017-05-08T02:06:48.060Z,1011.97
2017-05-08T02:07:49.577Z,1011.98
2017-05-08T02:09:11.239Z,1011.94
2017-05-08T02:10:12.759Z,1011.97
2017-05-08T02:11:34.396Z,1011.90
2017-05-08T02:12:35.917Z,1011.91
2017-05-08T02:13:57.557Z,1011.93
2017-05-08T02:14:59.078Z,1011.94
2017-05-08T02:16:20.745Z,1011.90
2017-05-08T02:17:22.261Z,1011.95
2017-05-08T02:18:43.903Z,1011.94
2017-05-08T02:19:45.422Z,1011.96
2017-05-08T02:21:07.061Z,1011.94
2017-05-08T02:22:08.580Z,1011.93
2017-05-08T02:23:30.247Z,1011.91
2017-05-08T02:24:31.764Z,1011.94
2017-05-08T02:25:53.404Z,1011.93
2017-05-08T02:26:54.925Z,1011.93
2017-05-08T02:28:16.557Z,1011.97
2017-05-08T02:29:18.079Z,1011.91
2017-05-08T02:30:39.754Z,1011.88
2017-05-08T02:31:41.274Z,1011.91
2017-05-08T02:33:02.909Z,1011.90
2017-05-08T02:34:04.432Z,1011.90
2017-05-08T02:35:26.066Z,1011.90
2017-05-08T02:36:27.587Z,1011.91
2017-05-08T02:37:49.254Z,1011.87
2017-05-08T02:38:50.774Z,1011.91
2017-05-08T02:40:12.406Z,1011.86
2017-05-08T02:41:14.770Z,1011.86
2017-05-08T02:42:36.410Z,1011.87
2017-05-08T02:43:37.929Z,1011.87
2017-05-08T02:44:59.604Z,1011.89
2017-05-08T02:46:01.124Z,1011.89
2017-05-08T02:47:22.759Z,1011.91
2017-05-08T02:48:24.281Z,1011.88
2017-05-08T02:49:45.917Z,1011.88
2017-05-08T02:50:47.446Z,1011.86
2017-05-08T02:52:09.106Z,1011.85
2017-05-08T02:53:10.655Z,1011.89
2017-05-08T02:54:32.626Z,1011.83
2017-05-08T02:55:34.200Z,1011.84
2017-05-08T02:56:56.012Z,1011.85
2017-05-08T02:57:57.661Z,1011.86
2017-05-08T02:59:19.564Z,1011.86
2017-05-08T03:00:21.102Z,1011.87
2017-05-08T03:01:42.731Z,1011.89
2017-05-08T03:02:44.251Z,1011.90
2017-05-08T03:04:05.887Z,1011.88
2017-05-08T03:05:07.410Z,1011.93
2017-05-08T03:06:29.089Z,1011.89
2017-05-08T03:07:30.604Z,1011.92
2017-05-08T03:08:52.245Z,1011.90
2017-05-08T03:09:53.761Z,1011.87
2017-05-08T03:11:15.396Z,1011.86
2017-05-08T03:12:16.920Z,1011.84
2017-05-08T03:13:38.581Z,1011.88
2017-05-08T03:14:40.107Z,1011.88
2017-05-08T03:16:01.739Z,1011.87
2017-05-08T03:17:03.262Z,1011.90
2017-05-08T03:18:24.902Z,1011.89
2017-05-08T03:19:26.425Z,1011.93
2017-05-08T03:20:48.099Z,1011.92
2017-05-08T03:21:49.622Z,1011.95
2017-05-08T03:23:11.264Z,1011.93
2017-05-08T03:24:12.789Z,1011.96
2017-05-08T03:25:34.428Z,1011.97
2017-05-08T03:26:35.953Z,1011.98
2017-05-08T03:27:57.614Z,1012.05
2017-05-08T03:28:59.141Z,1012.04
2017-05-08T03:30:20.778Z,1012.09
2017-05-08T03:31:22.301Z,1012.04
2017-05-08T03:32:43.941Z,1012.09
2017-05-08T03:33:45.463Z,1012.05
2017-05-08T03:35:07.125Z,1012.06
2017-05-08T03:36:08.649Z,1012.08
2017-05-08T03:37:30.291Z,1012.05
2017-05-08T03:38:31.817Z,1012.09
2017-05-08T03:39:53.454Z,1012.11
2017-05-08T03:40:54.977Z,1012.05
2017-05-08T03:42:16.645Z,1012.10
2017-05-08T03:43:18.174Z,1012.08
2017-05-08T03:44:39.811Z,1012.15
2017-05-08T03:45:41.335Z,1012.14
2017-05-08T03:47:02.973Z,1012.12
2017-05-08T03:48:04.498Z,1012.08
2017-05-08T03:49:26.165Z,1012.13
2017-05-08T03:50:27.693Z,1012.17
2017-05-08T03:51:49.333Z,1012.14
2017-05-08T03:52:50.856Z,1012.16
2017-05-08T03:54:12.500Z,1012.17
2017-05-08T03:55:14.027Z,1012.21
2017-05-08T03:56:35.691Z,1012.22
2017-05-08T03:57:37.220Z,1012.22
2017-05-08T03:58:58.858Z,1012.25
2017-05-08T04:00:00.386Z,1012.26
2017-05-08T04:01:22.028Z,1012.24
2017-05-08T04:02:23.560Z,1012.29
2017-05-08T04:03:45.226Z,1012.30
2017-05-08T04:04:46.753Z,1012.31
2017-05-08T04:06:08.399Z,1012.33
2017-05-08T04:07:09.923Z,1012.31
2017-05-08T04:08:31.567Z,1012.33
2017-05-08T04:09:33.094Z,1012.35
2017-05-08T04:10:54.774Z,1012.34
2017-05-08T04:11:56.300Z,1012.34
2017-05-08T04:13:17.947Z,1012.40
2017-05-08T04:14:19.475Z,1012.45
2017-05-08T04:15:41.116Z,1012.47
2017-05-08T04:16:42.647Z,1012.48
2017-05-08T04:18:04.318Z,1012.46
2017-05-08T04:19:05.852Z,1012.45
2017-05-08T04:20:27.490Z,1012.52
2017-05-08T04:21:29.017Z,1012.50
2017-05-08T04:22:50.659Z,1012.55
2017-05-08T04:23:52.190Z,1012.50
2017-05-08T04:25:13.861Z,1012.50
2017-05-08T04:26:15.393Z,1012.57
2017-05-08T04:27:37.037Z,1012.58
2017-05-08T04:28:39.171Z,1012.56
2017-05-08T04:30:00.810Z,1012.54
2017-05-08T04:31:02.344Z,1012.64
2017-05-08T04:32:24.015Z,1012.64
2017-05-08T04:33:25.546Z,1012.61
2017-05-08T04:34:47.188Z,1012.60
2017-05-08T04:35:48.719Z,1012.60
2017-05-08T04:37:10.364Z,1012.61
2017-05-08T04:38:11.891Z,1012.61
2017-05-08T04:39:33.558Z,1012.64
2017-05-08T04:40:35.088Z,1012.67
2017-05-08T04:41:56.739Z,1012.68
2017-05-08T04:42:58.266Z,1012.75
2017-05-08T04:44:20.402Z,1012.78
2017-05-08T04:45:21.932Z,1012.74
2017-05-08T04:46:43.615Z,1012.78
2017-05-08T04:47:45.142Z,1012.80
2017-05-08T04:49:06.784Z,1012.78
2017-05-08T04:50:08.314Z,1012.80
2017-05-08T04:51:29.952Z,1012.81
2017-05-08T04:52:31.483Z,1012.79
2017-05-08T04:53:53.158Z,1012.81
2017-05-08T04:54:54.691Z,1012.82
2017-05-08T04:56:16.336Z,1012.80
2017-05-08T04:57:17.863Z,1012.75
2017-05-08T04:58:39.507Z,1012.70
2017-05-08T04:59:41.038Z,1012.70
2017-05-08T05:01:02.705Z,1012.74
2017-05-08T05:02:04.238Z,1012.74
2017-05-08T05:03:25.880Z,1012.75
2017-05-08T05:04:27.414Z,1012.73
2017-05-08T05:05:49.055Z,1012.80
2017-05-08T05:06:50.585Z,1012.77
2017-05-08T05:08:12.259Z,1012.74
2017-05-08T05:09:13.787Z,1012.76
2017-05-08T05:10:35.430Z,1012.81
2017-05-08T05:11:36.962Z,1012.82
2017-05-08T05:12:58.606Z,1012.87
2017-05-08T05:14:00.134Z,1012.84
2017-05-08T05:15:21.805Z,1012.87
2017-05-08T05:16:23.336Z,1012.87
2017-05-08T05:17:44.987Z,1012.82
2017-05-08T05:18:46.516Z,1012.79
2017-05-08T05:20:08.159Z,1012.76
2017-05-08T05:21:09.691Z,1012.71
2017-05-08T05:22:31.369Z,1012.72
2017-05-08T05:23:32.898Z,1012.74
2017-05-08T05:24:54.546Z,1012.73
2017-05-08T05:25:56.076Z,1012.76
2017-05-08T05:27:17.723Z,1012.78
2017-05-08T05:28:19.256Z,1012.76
2017-05-08T05:29:40.930Z,1012.78
2017-05-08T05:30:42.456Z,1012.84
2017-05-08T05:32:04.100Z,1012.79
2017-05-08T05:33:05.633Z,1012.80
2017-05-08T05:34:27.279Z,1012.85
2017-05-08T05:35:28.812Z,1012.76
2017-05-08T05:36:50.479Z,1012.75
2017-05-08T05:37:52.010Z,1012.72
2017-05-08T05:39:13.654Z,1012.76
2017-05-08T05:40:15.184Z,1012.77
2017-05-08T05:41:36.827Z,1012.79
2017-05-08T05:42:38.356Z,1012.78
2017-05-08T05:44:00.038Z,1012.83
2017-05-08T05:45:01.567Z,1012.81
2017-05-08T05:46:23.210Z,1012.87
2017-05-08T05:47:24.744Z,1012.89
2017-05-08T05:48:46.384Z,1012.86
2017-05-08T05:49:47.911Z,1012.92
2017-05-08T05:51:09.586Z,1012.94
2017-05-08T05:52:11.114Z,1012.95
2017-05-08T05:53:32.756Z,1012.96
2017-05-08T05:54:34.284Z,1013.02
2017-05-08T05:55:55.924Z,1013.06
2017-05-08T05:56:57.456Z,1013.06
2017-05-08T05:58:19.140Z,1013.10
2017-05-08T05:59:20.670Z,1013.11
2017-05-08T06:00:42.313Z,1013.11
2017-05-08T06:01:43.844Z,1013.10
2017-05-08T06:03:05.486Z,1013.13
2017-05-08T06:04:07.020Z,1013.13
2017-05-08T06:05:28.686Z,1013.20
2017-05-08T06:06:30.218Z,1013.19
2017-05-08T06:07:51.866Z,1013.20
2017-05-08T06:08:53.402Z,1013.17
2017-05-08T06:10:15.044Z,1013.24
2017-05-08T06:11:16.576Z,1013.30
2017-05-08T06:12:38.265Z,1013.28
2017-05-08T06:13:39.795Z,1013.28
2017-05-08T06:15:01.448Z,1013.34
2017-05-08T06:16:02.977Z,1013.35
2017-05-08T06:17:24.626Z,1013.38
2017-05-08T06:18:26.158Z,1013.40
2017-05-08T06:19:47.842Z,1013.40
2017-05-08T06:20:49.376Z,1013.39
2017-05-08T06:22:11.016Z,1013.41
2017-05-08T06:23:12.552Z,1013.43
2017-05-08T06:24:34.197Z,1013.43
2017-05-08T06:25:35.729Z,1013.50
2017-05-08T06:26:57.414Z,1013.47
2017-05-08T06:27:58.944Z,1013.48
2017-05-08T06:29:20.593Z,1013.48
2017-05-08T06:30:22.125Z,1013.52
2017-05-08T06:31:43.769Z,1013.48
2017-05-08T06:32:45.303Z,1013.49
2017-05-08T06:34:06.976Z,1013.54
2017-05-08T06:35:08.513Z,1013.53
2017-05-08T06:36:30.161Z,1013.50
2017-05-08T06:37:31.692Z,1013.48
2017-05-08T06:38:53.333Z,1013.44
2017-05-08T06:39:54.868Z,1013.47
2017-05-08T06:41:16.546Z,1013.50
2017-05-08T06:42:18.083Z,1013.49
2017-05-08T06:43:39.728Z,1013.52
2017-05-08T06:44:41.266Z,1013.55
2017-05-08T06:46:02.911Z,1013.50
2017-05-08T06:47:04.444Z,1013.52
2017-05-08T06:48:26.120Z,1013.52
2017-05-08T06:49:27.655Z,1013.52
2017-05-08T06:50:49.300Z,1013.53
2017-05-08T06:51:50.836Z,1013.47
2017-05-08T06:53:12.481Z,1013.46
2017-05-08T06:54:14.016Z,1013.43
2017-05-08T06:55:35.692Z,1013.47
2017-05-08T06:56:37.224Z,1013.47
2017-05-08T06:57:58.872Z,1013.44
2017-05-08T06:59:00.405Z,1013.45
2017-05-08T07:00:22.054Z,1013.45
2017-05-08T07:01:23.618Z,1013.40
2017-05-08T07:02:45.270Z,1013.34
2017-05-08T07:03:46.800Z,1013.32
2017-05-08T07:05:08.446Z,1013.33
2017-05-08T07:06:09.979Z,1013.29
2017-05-08T07:07:31.621Z,1013.35
2017-05-08T07:08:33.155Z,1013.26
2017-05-08T07:09:54.825Z,1013.27
2017-05-08T07:10:56.357Z,1013.27
2017-05-08T07:12:18.000Z,1013.27
2017-05-08T07:13:19.529Z,1013.24
2017-05-08T07:14:41.175Z,1013.25
2017-05-08T07:15:42.707Z,1013.26
2017-05-08T07:17:04.386Z,1013.25
2017-05-08T07:18:05.919Z,1013.25
2017-05-08T07:19:27.564Z,1013.24
2017-05-08T07:20:29.091Z,1013.26
2017-05-08T07:21:50.736Z,1013.25
2017-05-08T07:22:52.265Z,1013.24
2017-05-08T07:24:13.934Z,1013.22
2017-05-08T07:25:15.464Z,1013.24
2017-05-08T07:26:37.109Z,1013.23
2017-05-08T07:27:38.638Z,1013.21
2017-05-08T07:29:00.282Z,1013.16
2017-05-08T07:30:01.813Z,1013.14
2017-05-08T07:31:23.488Z,1013.18
2017-05-08T07:32:25.018Z,1013.19
2017-05-08T07:33:46.665Z,1013.18
2017-05-08T07:34:48.197Z,1013.20
2017-05-08T07:36:09.844Z,1013.10
2017-05-08T07:37:11.378Z,1013.15
2017-05-08T07:38:33.061Z,1013.12
2017-05-08T07:39:34.591Z,1013.14
2017-05-08T07:40:56.233Z,1013.13
2017-05-08T07:41:57.764Z,1013.19
2017-05-08T07:43:19.410Z,1013.17
2017-05-08T07:44:20.941Z,1013.18
2017-05-08T07:45:42.622Z,1013.16
2017-05-08T07:46:44.152Z,1013.18
2017-05-08T07:48:05.801Z,1013.12
2017-05-08T07:49:07.335Z,1013.12
2017-05-08T07:50:28.979Z,1013.18
2017-05-08T07:51:30.510Z,1013.16
2017-05-08T07:52:52.190Z,1013.22
2017-05-08T07:53:53.721Z,1013.24
2017-05-08T07:55:15.367Z,1013.21
2017-05-08T07:56:16.904Z,1013.14
2017-05-08T07:57:38.551Z,1013.23
2017-05-08T07:58:40.080Z,1013.21
2017-05-08T08:00:01.751Z,1013.25
2017-05-08T08:01:03.282Z,1013.25
2017-05-08T08:02:24.928Z,1013.30
2017-05-08T08:03:26.459Z,1013.28
2017-05-08T08:04:48.109Z,1013.32
2017-05-08T08:05:49.640Z,1013.31
2017-05-08T08:07:11.308Z,1013.28
2017-05-08T08:08:12.840Z,1013.31
2017-05-08T08:09:34.482Z,1013.28
2017-05-08T08:10:36.011Z,1013.30
2017-05-08T08:11:57.653Z,1013.30
2017-05-08T08:12:59.187Z,1013.29
2017-05-08T08:14:20.869Z,1013.26
2017-05-08T08:15:22.400Z,1013.28
2017-05-08T08:16:44.044Z,1013.31
2017-05-08T08:17:45.577Z,1013.25
2017-05-08T08:19:07.220Z,1013.31
2017-05-08T08:20:08.755Z,1013.24
2017-05-08T08:21:30.438Z,1013.20
2017-05-08T08:22:31.968Z,1013.18
2017-05-08T08:23:53.614Z,1013.21
2017-05-08T08:24:55.149Z,1013.20
2017-05-08T08:26:16.796Z,1013.21
2017-05-08T08:27:18.329Z,1013.19
2017-05-08T08:28:40.015Z,1013.24
2017-05-08T08:29:41.545Z,1013.16
2017-05-08T08:31:03.190Z,1013.17
2017-05-08T08:32:04.757Z,1013.15
2017-05-08T08:33:26.369Z,1013.14
2017-05-08T08:34:27.902Z,1013.14
2017-05-08T08:35:49.571Z,1013.18
2017-05-08T08:36:51.108Z,1013.24
2017-05-08T08:38:12.758Z,1013.17
2017-05-08T08:39:14.293Z,1013.19
2017-05-08T08:40:35.937Z,1013.15
2017-05-08T08:41:37.471Z,1013.18
2017-05-08T08:42:59.143Z,1013.14
2017-05-08T08:44:00.679Z,1013.17
2017-05-08T08:45:22.331Z,1013.12
2017-05-08T08:46:23.865Z,1013.17
2017-05-08T08:47:45.512Z,1013.13
2017-05-08T08:48:47.045Z,1013.14
2017-05-08T08:50:08.729Z,1013.19
2017-05-08T08:51:10.261Z,1013.15
2017-05-08T08:52:31.911Z,1013.20
2017-05-08T08:53:33.453Z,1013.30
2017-05-08T08:54:55.096Z,1013.19
2017-05-08T08:55:56.628Z,1013.23
2017-05-08T08:57:18.295Z,1013.29
2017-05-08T08:58:19.827Z,1013.35
2017-05-08T08:59:41.514Z,1013.28
2017-05-08T09:00:43.050Z,1013.28
2017-05-08T09:02:04.700Z,1013.19
2017-05-08T09:03:06.231Z,1013.30
2017-05-08T09:04:27.909Z,1013.34
2017-05-08T09:05:29.444Z,1013.25
2017-05-08T09:06:51.122Z,1013.20
2017-05-08T09:07:52.622Z,1013.24
2017-05-08T09:09:14.270Z,1013.22
2017-05-08T09:10:15.800Z,1013.28
2017-05-08T09:11:37.478Z,1013.40
2017-05-08T09:12:39.012Z,1013.27
2017-05-08T09:14:00.654Z,1013.34
2017-05-08T09:15:02.187Z,1013.35
2017-05-08T09:16:23.832Z,1013.38
2017-05-08T09:17:25.362Z,1013.39
2017-05-08T09:18:47.035Z,1013.38
2017-05-08T09:19:48.566Z,1013.61
2017-05-08T09:21:10.210Z,1013.55
2017-05-08T09:22:11.740Z,1013.75
2017-05-08T09:23:33.393Z,1013.47
2017-05-08T09:24:34.924Z,1013.54
2017-05-08T09:25:56.606Z,1013.63
2017-05-08T09:26:58.140Z,1013.61
2017-05-08T09:28:19.790Z,1013.69
2017-05-08T09:29:21.324Z,1013.57
2017-05-08T09:30:42.970Z,1013.68
2017-05-08T09:31:44.504Z,1013.76
2017-05-08T09:33:06.178Z,1013.82
2017-05-08T09:34:07.717Z,1013.74
2017-05-08T09:35:29.360Z,1013.80
2017-05-08T09:36:30.897Z,1013.77
2017-05-08T09:37:52.549Z,1013.80
2017-05-08T09:38:54.084Z,1013.80
2017-05-08T09:40:15.763Z,1013.73
2017-05-08T09:41:17.296Z,1013.62
2017-05-08T09:42:38.948Z,1013.71
2017-05-08T09:43:40.482Z,1013.67
2017-05-08T09:45:02.138Z,1013.66
2017-05-08T09:46:03.674Z,1013.52
2017-05-08T09:47:25.354Z,1013.53
2017-05-08T09:48:26.887Z,1013.49
2017-05-08T09:49:48.535Z,1013.48
2017-05-08T09:50:50.069Z,1013.51
2017-05-08T09:52:11.717Z,1013.66
2017-05-08T09:53:13.254Z,1013.54
2017-05-08T09:54:35.423Z,1013.64
2017-05-08T09:55:36.954Z,1013.56
2017-05-08T09:56:58.608Z,1013.65
2017-05-08T09:58:00.140Z,1013.68
2017-05-08T09:59:21.791Z,1013.70
2017-05-08T10:00:23.326Z,1013.72
2017-05-08T10:01:45.001Z,1013.83
2017-05-08T10:02:46.534Z,1013.87
2017-05-08T10:04:08.190Z,1013.85
2017-05-08T10:05:09.726Z,1013.89
2017-05-08T10:06:31.380Z,1013.96
2017-05-08T10:07:32.914Z,1013.90
2017-05-08T10:08:54.593Z,1013.87
2017-05-08T10:09:56.129Z,1013.78
2017-05-08T10:11:17.782Z,1013.77
2017-05-08T10:12:19.320Z,1013.90
2017-05-08T10:13:40.966Z,1013.85
2017-05-08T10:14:42.501Z,1013.86
2017-05-08T10:16:04.180Z,1013.85
2017-05-08T10:17:05.717Z,1013.87
2017-05-08T10:18:27.372Z,1013.85
2017-05-08T10:19:28.907Z,1013.93
2017-05-08T10:20:50.562Z,1013.94
2017-05-08T10:21:52.097Z,1014.00
2017-05-08T10:23:13.775Z,1014.05
2017-05-08T10:24:15.306Z,1014.12
2017-05-08T10:25:36.958Z,1014.09
2017-05-08T10:26:38.492Z,1014.09
2017-05-08T10:28:00.147Z,1014.11
2017-05-08T10:29:01.678Z,1014.14
2017-05-08T10:30:23.355Z,1014.28
2017-05-08T10:31:24.891Z,1014.14
2017-05-08T10:32:46.544Z,1013.99
2017-05-08T10:33:48.078Z,1013.94
2017-05-08T10:35:09.728Z,1013.89
2017-05-08T10:36:11.271Z,1013.93
2017-05-08T10:37:32.936Z,1013.92
2017-05-08T10:38:34.472Z,1013.89
2017-05-08T10:39:56.119Z,1014.04
2017-05-08T10:40:57.645Z,1013.86
2017-05-08T10:42:19.293Z,1013.95
2017-05-08T10:43:20.827Z,1013.94
2017-05-08T10:44:42.505Z,1013.91
2017-05-08T10:45:44.039Z,1013.88
2017-05-08T10:47:05.695Z,1013.84
2017-05-08T10:48:07.225Z,1013.88
2017-05-08T10:49:28.871Z,1013.75
2017-05-08T10:50:30.405Z,1013.82
2017-05-08T10:51:52.091Z,1013.70
2017-05-08T10:52:53.625Z,1013.66
2017-05-08T10:54:15.272Z,1013.71
2017-05-08T10:55:16.803Z,1013.69
2017-05-08T10:56:38.449Z,1013.64
2017-05-08T10:57:39.984Z,1013.73
2017-05-08T10:59:01.669Z,1013.66
2017-05-08T11:00:03.197Z,1013.83
2017-05-08T11:01:24.843Z,1013.65
2017-05-08T11:02:26.375Z,1013.65
2017-05-08T11:03:48.020Z,1013.59
2017-05-08T11:04:49.551Z,1013.66
2017-05-08T11:06:11.231Z,1013.63
2017-05-08T11:07:12.763Z,1013.61
2017-05-08T11:08:34.409Z,1013.64
2017-05-08T11:09:35.943Z,1013.58
2017-05-08T11:10:57.588Z,1013.54
2017-05-08T11:11:59.121Z,1013.57
2017-05-08T11:13:20.796Z,1013.65
2017-05-08T11:14:22.328Z,1013.70
2017-05-08T11:15:43.979Z,1013.77
2017-05-08T11:16:45.513Z,1013.81
2017-05-08T11:18:07.159Z,1013.83
2017-05-08T11:19:08.695Z,1013.91
2017-05-08T11:20:30.375Z,1013.91
2017-05-08T11:21:31.907Z,1013.94
2017-05-08T11:22:53.553Z,1013.90
2017-05-08T11:23:55.084Z,1013.88
2017-05-08T11:25:16.735Z,1013.84
2017-05-08T11:26:18.268Z,1013.86
2017-05-08T11:27:39.941Z,1013.81
2017-05-08T11:28:41.474Z,1013.85
2017-05-08T11:30:03.122Z,1013.80
2017-05-08T11:31:04.656Z,1013.88
2017-05-08T11:32:26.303Z,1013.80
2017-05-08T11:33:27.834Z,1013.99
2017-05-08T11:34:49.506Z,1013.85
2017-05-08T11:35:51.037Z,1013.84
2017-05-08T11:37:12.693Z,1013.79
2017-05-08T11:38:14.218Z,1013.80
2017-05-08T11:39:35.863Z,1013.81
2017-05-08T11:40:37.397Z,1013.83
2017-05-08T11:41:59.066Z,1013.85
2017-05-08T11:43:00.597Z,1013.89
2017-05-08T11:44:22.245Z,1013.85
2017-05-08T11:45:23.779Z,1013.85
2017-05-08T11:46:45.422Z,1013.89
2017-05-08T11:47:46.953Z,1013.90
2017-05-08T11:49:08.638Z,1013.88
2017-05-08T11:50:10.167Z,1013.89
2017-05-08T11:51:31.812Z,1013.93
2017-05-08T11:52:33.345Z,1013.95
2017-05-08T11:53:55.481Z,1013.98
2017-05-08T11:54:57.013Z,1014.05
2017-05-08T11:56:18.688Z,1014.03
2017-05-08T11:57:20.218Z,1014.04
2017-05-08T11:58:41.863Z,1014.02
2017-05-08T11:59:43.392Z,1014.12
2017-05-08T12:01:05.034Z,1014.23
2017-05-08T12:02:06.565Z,1014.28
2017-05-08T12:03:28.249Z,1014.19
2017-05-08T12:04:29.779Z,1014.08
2017-05-08T12:05:51.427Z,1014.02
2017-05-08T12:06:52.956Z,1014.01
2017-05-08T12:08:14.604Z,1014.05
2017-05-08T12:09:16.134Z,1014.15
2017-05-08T12:10:37.813Z,1014.08
2017-05-08T12:11:39.342Z,1014.06
2017-05-08T12:13:00.989Z,1014.13
2017-05-08T12:14:02.518Z,1014.11
2017-05-08T12:15:24.162Z,1014.16
2017-05-08T12:16:25.692Z,1014.20
2017-05-08T12:17:47.369Z,1014.18
2017-05-08T12:18:48.897Z,1014.16
2017-05-08T12:20:10.545Z,1014.17
2017-05-08T12:21:12.078Z,1014.18
2017-05-08T12:22:33.720Z,1014.21
2017-05-08T12:23:35.251Z,1014.19
2017-05-08T12:24:56.934Z,1014.20
2017-05-08T12:25:58.464Z,1014.22
2017-05-08T12:27:20.109Z,1014.30
2017-05-08T12:28:21.637Z,1014.35
2017-05-08T12:29:43.281Z,1014.28
2017-05-08T12:30:44.811Z,1014.34
2017-05-08T12:32:06.510Z,1014.35
2017-05-08T12:33:08.041Z,1014.33
2017-05-08T12:34:30.188Z,1014.43
2017-05-08T12:35:31.707Z,1014.32
2017-05-08T12:36:53.353Z,1014.30
2017-05-08T12:37:54.882Z,1014.23
2017-05-08T12:39:16.561Z,1014.29
2017-05-08T12:40:18.089Z,1014.29
2017-05-08T12:41:39.736Z,1014.29
2017-05-08T12:42:41.270Z,1014.35
2017-05-08T12:44:02.915Z,1014.43
2017-05-08T12:45:04.444Z,1014.50
2017-05-08T12:46:26.117Z,1014.49
2017-05-08T12:47:27.649Z,1014.51
2017-05-08T12:48:49.298Z,1014.53
2017-05-08T12:49:50.828Z,1014.43
2017-05-08T12:51:12.477Z,1014.37
2017-05-08T12:52:14.006Z,1014.34
2017-05-08T12:53:35.677Z,1014.50
2017-05-08T12:54:37.207Z,1014.51
2017-05-08T12:55:58.853Z,1014.46
2017-05-08T12:57:00.406Z,1014.61
2017-05-08T12:58:22.083Z,1014.49
2017-05-08T12:59:23.619Z,1014.51
2017-05-08T13:00:45.302Z,1014.43
2017-05-08T13:01:46.829Z,1014.60
2017-05-08T13:03:08.470Z,1014.38
2017-05-08T13:04:10.003Z,1014.37
2017-05-08T13:05:31.650Z,1014.45
2017-05-08T13:06:33.173Z,1014.39
2017-05-08T13:07:54.841Z,1014.35
2017-05-08T13:08:56.373Z,1014.36
2017-05-08T13:10:18.026Z,1014.40
2017-05-08T13:11:19.553Z,1014.35
2017-05-08T13:12:41.196Z,1014.41
2017-05-08T13:13:42.726Z,1014.44
2017-05-08T13:15:04.399Z,1014.39
2017-05-08T13:16:05.930Z,1014.50
2017-05-08T13:17:27.575Z,1014.33
2017-05-08T13:18:29.106Z,1014.31
2017-05-08T13:19:50.749Z,1014.35
2017-05-08T13:20:52.277Z,1014.29
2017-05-08T13:22:13.949Z,1014.21
2017-05-08T13:23:15.482Z,1014.32
2017-05-08T13:24:37.123Z,1014.33
2017-05-08T13:25:38.652Z,1014.23
2017-05-08T13:27:00.300Z,1014.23
2017-05-08T13:28:01.827Z,1014.24
2017-05-08T13:29:23.509Z,1014.31
2017-05-08T13:30:25.040Z,1014.40
2017-05-08T13:31:46.687Z,1014.33
2017-05-08T13:32:48.217Z,1014.29
2017-05-08T13:34:09.858Z,1014.26
2017-05-08T13:35:11.387Z,1014.25
2017-05-08T13:36:33.071Z,1014.24
2017-05-08T13:37:34.604Z,1014.23
2017-05-08T13:38:56.249Z,1014.18
2017-05-08T13:39:57.780Z,1014.26
2017-05-08T13:41:19.423Z,1014.28
2017-05-08T13:42:20.954Z,1014.21
2017-05-08T13:43:42.629Z,1014.22
2017-05-08T13:44:44.159Z,1014.18
2017-05-08T13:46:05.801Z,1014.12
2017-05-08T13:47:07.331Z,1014.15
2017-05-08T13:48:28.977Z,1014.17
2017-05-08T13:49:30.506Z,1014.23
2017-05-08T13:50:52.178Z,1014.20
2017-05-08T13:51:53.707Z,1014.16
2017-05-08T13:53:15.350Z,1014.22
2017-05-08T13:54:16.881Z,1014.12
2017-05-08T13:55:38.523Z,1014.10
2017-05-08T13:56:40.051Z,1014.16
2017-05-08T13:58:01.728Z,1014.10
2017-05-08T13:59:03.361Z,1014.12
2017-05-08T14:00:25.010Z,1014.06
2017-05-08T14:01:26.540Z,1014.05
2017-05-08T14:02:48.184Z,1014.01
2017-05-08T14:03:49.711Z,1014.03
2017-05-08T14:05:11.377Z,1014.13
2017-05-08T14:06:12.908Z,1014.00
2017-05-08T14:07:34.552Z,1014.07
2017-05-08T14:08:36.081Z,1014.09
2017-05-08T14:09:57.723Z,1014.06
2017-05-08T14:10:59.248Z,1014.03
2017-05-08T14:12:20.919Z,1014.07
2017-05-08T14:13:22.444Z,1014.07
2017-05-08T14:14:44.101Z,1014.15
2017-05-08T14:15:46.887Z,1014.21
2017-05-08T14:17:08.593Z,1014.04
2017-05-08T14:18:10.121Z,1014.10
2017-05-08T14:19:31.796Z,1014.19
2017-05-08T14:20:33.329Z,1014.24
2017-05-08T14:21:54.968Z,1014.19
2017-05-08T14:22:56.507Z,1014.24
2017-05-08T14:24:18.187Z,1014.29
2017-05-08T14:25:19.903Z,1014.18